Time;durP1;ratioP1;P1;durP2;ratioP2;P2;SDS_P1;SDS_P2;PMS_P1;PMS_P2;Temp;Humidity;BMP_temperature;BMP_pressure;BME280_temperature;BME280_humidity;BME280_pressure;Samples;Min_cycle;Max_cycle;Signal;HPM_P1;HPM_P2
2021/05/20 00:01:52;;;;;;;3.63;1.10;;;19.50;49.60;;;;;;5094617;28;20073;-72
2021/05/20 00:04:18;;;;;;;4.57;1.33;;;19.50;49.60;;;;;;5094333;28;20024;-72
2021/05/20 00:06:43;;;;;;;3.20;1.30;;;19.50;49.60;;;;;;5094388;28;20039;-71
2021/05/20 00:09:09;;;;;;;2.08;0.98;;;19.50;49.60;;;;;;5094299;28;20028;-72
2021/05/20 00:11:34;;;;;;;3.38;1.40;;;19.50;49.60;;;;;;5094309;28;20103;-72
2021/05/20 00:14:00;;;;;;;2.15;1.23;;;19.50;49.60;;;;;;5094137;28;20024;-72
2021/05/20 00:16:26;;;;;;;2.53;1.08;;;19.50;49.70;;;;;;5093884;28;20108;-72
2021/05/20 00:18:51;;;;;;;2.70;1.20;;;19.50;49.60;;;;;;5094034;28;20027;-72
2021/05/20 00:21:17;;;;;;;3.13;1.20;;;19.50;49.60;;;;;;5094231;28;20031;-71
2021/05/20 00:23:43;;;;;;;2.65;1.30;;;19.50;49.60;;;;;;5094304;28;20517;-71
2021/05/20 00:26:12;;;;;;;3.08;1.33;;;19.50;49.60;;;;;;5093654;28;20048;-72
2021/05/20 00:28:39;;;;;;;3.30;1.45;;;19.50;49.60;;;;;;5093971;28;20024;-72
2021/05/20 00:31:04;;;;;;;2.50;1.20;;;19.50;49.70;;;;;;5093733;28;20048;-72
2021/05/20 00:33:30;;;;;;;2.75;1.30;;;19.50;49.60;;;;;;5093625;28;20384;-72
2021/05/20 00:35:55;;;;;;;3.38;1.40;;;19.50;49.60;;;;;;5094276;28;20066;-72
2021/05/20 00:38:21;;;;;;;2.60;1.20;;;19.50;49.60;;;;;;5094071;28;20024;-72
2021/05/20 00:40:46;;;;;;;2.42;1.20;;;19.50;49.60;;;;;;5093988;28;20361;-72
2021/05/20 00:43:12;;;;;;;3.03;1.17;;;19.50;49.60;;;;;;5094159;28;20024;-72
2021/05/20 00:45:37;;;;;;;4.05;1.42;;;19.50;49.60;;;;;;5093825;28;20020;-72
2021/05/20 00:48:03;;;;;;;3.42;1.45;;;19.40;49.60;;;;;;5093743;28;20058;-72
2021/05/20 00:50:28;;;;;;;2.03;1.20;;;19.40;49.70;;;;;;5093643;28;20016;-72
2021/05/20 00:52:54;;;;;;;4.10;1.85;;;19.50;49.60;;;;;;5093353;28;20020;-72
2021/05/20 00:55:21;;;;;;;2.95;1.27;;;19.50;49.60;;;;;;5093710;28;20025;-72
2021/05/20 00:57:48;;;;;;;3.83;1.65;;;19.50;49.60;;;;;;5093512;28;20512;-72
2021/05/20 01:00:15;;;;;;;2.55;1.35;;;19.40;49.60;;;;;;5093632;28;20031;-72
2021/05/20 01:02:41;;;;;;;3.20;1.40;;;19.50;49.60;;;;;;5093233;28;20038;-72
2021/05/20 01:05:13;;;;;;;3.65;1.55;;;19.40;49.60;;;;;;5093493;28;20035;-72
2021/05/20 01:07:38;;;;;;;3.38;1.52;;;19.40;49.60;;;;;;5093427;28;20054;-72
2021/05/20 01:10:05;;;;;;;3.42;1.50;;;19.40;49.70;;;;;;5093512;28;20024;-72
2021/05/20 01:12:31;;;;;;;2.80;1.25;;;19.50;49.70;;;;;;5093366;28;20036;-73
2021/05/20 01:14:57;;;;;;;7.20;2.60;;;19.40;49.60;;;;;;5092975;28;20122;-71
2021/05/20 01:17:24;;;;;;;2.30;1.17;;;19.40;49.60;;;;;;5093380;28;20024;-72
2021/05/20 01:19:50;;;;;;;3.95;1.52;;;19.40;49.70;;;;;;5093507;28;20023;-72
2021/05/20 01:22:16;;;;;;;5.53;1.58;;;19.40;49.60;;;;;;5093626;28;20032;-73
2021/05/20 01:24:42;;;;;;;4.43;1.45;;;19.40;49.70;;;;;;5093368;28;20048;-72
2021/05/20 01:27:10;;;;;;;3.00;1.40;;;19.40;49.70;;;;;;5093398;28;20035;-72
2021/05/20 01:29:37;;;;;;;2.53;1.38;;;19.40;49.60;;;;;;5097484;28;20016;-72
2021/05/20 01:32:04;;;;;;;3.50;1.55;;;19.40;49.70;;;;;;5097311;28;20016;-72
2021/05/20 01:34:34;;;;;;;3.53;1.63;;;19.40;49.70;;;;;;5097405;28;20031;-72
2021/05/20 01:37:07;;;;;;;3.28;1.80;;;19.40;49.70;;;;;;5097286;28;20028;-73
2021/05/20 01:39:35;;;;;;;3.15;1.60;;;19.40;49.60;;;;;;5097725;28;20020;-72
2021/05/20 01:42:01;;;;;;;3.58;1.52;;;19.40;49.70;;;;;;5096366;28;20028;-74
2021/05/20 01:44:27;;;;;;;3.33;1.55;;;19.40;49.70;;;;;;5100314;28;20028;-74
2021/05/20 01:46:52;;;;;;;3.30;1.98;;;19.30;49.70;;;;;;5107647;28;20038;-75
2021/05/20 01:49:18;;;;;;;3.28;1.60;;;19.30;49.60;;;;;;5107900;28;20388;-74
2021/05/20 01:51:44;;;;;;;3.17;1.55;;;19.30;49.60;;;;;;5106608;28;20388;-73
2021/05/20 01:54:09;;;;;;;3.95;1.65;;;19.30;49.60;;;;;;5107622;28;20039;-73
2021/05/20 01:56:36;;;;;;;3.80;1.85;;;19.40;49.60;;;;;;5109706;28;20020;-74
2021/05/20 01:59:08;;;;;;;2.75;1.48;;;19.30;49.70;;;;;;5107108;28;20020;-72
2021/05/20 02:01:34;;;;;;;3.63;1.60;;;19.30;49.70;;;;;;5106006;28;20035;-73
2021/05/20 02:04:00;;;;;;;3.70;1.52;;;19.30;49.60;;;;;;5102882;28;20016;-73
2021/05/20 02:06:25;;;;;;;3.85;1.88;;;19.30;49.70;;;;;;5098609;28;20559;-73
2021/05/20 02:08:51;;;;;;;3.72;1.77;;;19.30;49.60;;;;;;5097392;28;20016;-72
2021/05/20 02:11:17;;;;;;;5.30;2.15;;;19.30;49.60;;;;;;5096686;28;20065;-72
2021/05/20 02:13:42;;;;;;;3.08;1.55;;;19.30;49.60;;;;;;5096617;28;20371;-73
2021/05/20 02:16:08;;;;;;;4.13;2.20;;;19.40;49.60;;;;;;5096691;28;20055;-72
2021/05/20 02:18:34;;;;;;;3.65;1.80;;;19.30;49.60;;;;;;5096506;28;20503;-72
2021/05/20 02:21:01;;;;;;;3.50;1.80;;;19.30;49.60;;;;;;5095281;28;20031;-73
2021/05/20 02:23:26;;;;;;;3.95;1.83;;;19.30;49.60;;;;;;5096476;28;20046;-72
2021/05/20 02:25:52;;;;;;;3.08;1.52;;;19.30;49.60;;;;;;5094831;28;20103;-73
2021/05/20 02:28:18;;;;;;;4.65;2.65;;;19.30;49.60;;;;;;5096263;28;20093;-72
2021/05/20 02:30:43;;;;;;;3.92;1.77;;;19.30;49.60;;;;;;5096397;28;20024;-73
2021/05/20 02:33:09;;;;;;;4.40;2.20;;;19.30;49.60;;;;;;5096258;28;20521;-72
2021/05/20 02:35:35;;;;;;;2.70;1.40;;;19.30;49.60;;;;;;5096230;28;20456;-73
2021/05/20 02:38:00;;;;;;;3.75;1.77;;;19.30;49.60;;;;;;5095615;28;20021;-72
2021/05/20 02:40:26;;;;;;;4.13;2.10;;;19.30;49.60;;;;;;5095946;28;20503;-72
2021/05/20 02:42:52;;;;;;;4.43;2.05;;;19.30;49.60;;;;;;5095709;28;20073;-73
2021/05/20 02:45:20;;;;;;;4.25;1.83;;;19.30;49.60;;;;;;5095724;28;20024;-72
2021/05/20 02:47:47;;;;;;;5.35;2.40;;;19.30;49.60;;;;;;5095608;28;20484;-72
2021/05/20 02:50:14;;;;;;;4.00;1.90;;;19.30;49.60;;;;;;5096264;28;20050;-72
2021/05/20 02:52:44;;;;;;;4.32;1.92;;;19.30;49.50;;;;;;5096115;28;20047;-73
2021/05/20 02:55:15;;;;;;;4.10;2.00;;;19.30;49.60;;;;;;5095946;28;20028;-72
2021/05/20 02:57:53;;;;;;;4.15;1.90;;;19.30;49.60;;;;;;5095589;28;20031;-72
2021/05/20 03:00:19;;;;;;;4.25;1.95;;;19.30;49.60;;;;;;5095707;28;20030;-73
2021/05/20 03:02:49;;;;;;;4.82;2.25;;;19.30;49.60;;;;;;5095568;28;20479;-72
2021/05/20 03:05:15;;;;;;;5.10;2.30;;;19.30;49.60;;;;;;5095283;28;20060;-72
2021/05/20 03:07:41;;;;;;;3.78;1.98;;;19.30;49.60;;;;;;5095362;28;20118;-72
2021/05/20 03:10:08;;;;;;;4.18;1.98;;;19.30;49.60;;;;;;5095493;28;20510;-72
2021/05/20 03:12:34;;;;;;;3.47;1.80;;;19.30;49.60;;;;;;5095423;28;20070;-72
2021/05/20 03:15:00;;;;;;;5.25;2.50;;;19.30;49.60;;;;;;5095202;28;20027;-72
2021/05/20 03:17:25;;;;;;;4.63;2.10;;;19.30;49.60;;;;;;5095559;28;20020;-72
2021/05/20 03:19:51;;;;;;;5.93;2.42;;;19.30;49.60;;;;;;5095392;28;20379;-72
2021/05/20 03:22:17;;;;;;;4.07;2.20;;;19.20;49.60;;;;;;5094892;28;20024;-72
2021/05/20 03:24:43;;;;;;;3.95;1.85;;;19.30;49.60;;;;;;5095173;28;20561;-72
2021/05/20 03:27:08;;;;;;;3.47;1.58;;;19.30;49.60;;;;;;5094951;28;20051;-72
2021/05/20 03:29:34;;;;;;;3.38;1.75;;;19.30;49.60;;;;;;5095128;28;20047;-72
2021/05/20 03:31:59;;;;;;;4.43;2.10;;;19.30;49.60;;;;;;5095041;28;20024;-72
2021/05/20 03:34:25;;;;;;;4.18;2.22;;;19.30;49.60;;;;;;5094904;28;20028;-72
2021/05/20 03:36:51;;;;;;;3.83;2.10;;;19.30;49.60;;;;;;5094449;28;20024;-73
2021/05/20 03:39:16;;;;;;;4.50;2.20;;;19.20;49.60;;;;;;5097108;28;20051;-72
2021/05/20 03:41:42;;;;;;;4.57;2.22;;;19.20;49.60;;;;;;5099040;28;20020;-72
2021/05/20 03:44:07;;;;;;;3.78;2.00;;;19.20;49.60;;;;;;5094992;28;20081;-72
2021/05/20 03:46:33;;;;;;;4.78;2.15;;;19.20;49.60;;;;;;5095126;28;20039;-72
2021/05/20 03:48:58;;;;;;;4.55;2.28;;;19.20;49.60;;;;;;5096383;28;20064;-75
2021/05/20 03:51:24;;;;;;;5.28;2.10;;;19.20;49.60;;;;;;5098380;28;20024;-74
2021/05/20 03:53:50;;;;;;;4.13;1.90;;;19.20;49.60;;;;;;5102023;28;20472;-72
2021/05/20 03:56:16;;;;;;;4.07;2.08;;;19.20;49.60;;;;;;5098669;28;20036;-75
2021/05/20 03:58:41;;;;;;;4.40;2.05;;;19.30;49.60;;;;;;5098624;28;20016;-74
2021/05/20 04:01:07;;;;;;;4.75;2.40;;;19.20;49.60;;;;;;5098968;28;20028;-73
2021/05/20 04:03:33;;;;;;;3.53;1.92;;;19.20;49.60;;;;;;5097795;28;20020;-74
2021/05/20 04:06:04;;;;;;;3.85;2.00;;;19.20;49.60;;;;;;5096987;28;20031;-73
2021/05/20 04:08:30;;;;;;;4.78;2.20;;;19.20;49.60;;;;;;5096633;28;20020;-73
2021/05/20 04:10:55;;;;;;;3.90;1.92;;;19.20;49.60;;;;;;5097279;28;20023;-73
2021/05/20 04:13:36;;;;;;;4.28;2.25;;;19.20;49.60;;;;;;5096288;28;20024;-74
2021/05/20 04:16:03;;;;;;;3.40;1.70;;;19.30;49.60;;;;;;5095553;28;20081;-74
2021/05/20 04:18:29;;;;;;;4.28;2.20;;;19.20;49.50;;;;;;5095255;28;20024;-74
2021/05/20 04:20:55;;;;;;;4.13;2.10;;;19.20;49.60;;;;;;5096157;28;20494;-73
2021/05/20 04:23:21;;;;;;;3.58;2.08;;;19.20;49.60;;;;;;5099600;28;20503;-74
2021/05/20 04:25:48;;;;;;;4.45;2.03;;;19.20;49.60;;;;;;5096781;28;20122;-74
2021/05/20 04:28:14;;;;;;;4.47;2.17;;;19.30;49.50;;;;;;5096972;28;20050;-74
2021/05/20 04:30:40;;;;;;;4.57;2.28;;;19.20;49.60;;;;;;5095886;28;20491;-74
2021/05/20 04:33:07;;;;;;;4.07;2.00;;;19.20;49.60;;;;;;5096106;28;20040;-74
2021/05/20 04:35:33;;;;;;;4.70;2.28;;;19.20;49.50;;;;;;5095638;28;20027;-73
2021/05/20 04:37:59;;;;;;;3.88;1.88;;;19.20;49.60;;;;;;5094707;28;20024;-74
2021/05/20 04:40:25;;;;;;;4.18;1.90;;;19.20;49.50;;;;;;5094289;28;20491;-74
2021/05/20 04:42:51;;;;;;;4.50;2.30;;;19.20;49.50;;;;;;5094598;28;20032;-72
2021/05/20 04:45:17;;;;;;;4.93;2.33;;;19.20;49.50;;;;;;5095783;28;20028;-73
2021/05/20 04:47:44;;;;;;;4.53;2.25;;;19.20;49.50;;;;;;5093987;28;20384;-74
2021/05/20 04:50:10;;;;;;;4.22;1.98;;;19.20;49.50;;;;;;5094251;28;20027;-73
2021/05/20 04:52:36;;;;;;;4.05;1.90;;;19.20;49.60;;;;;;5094204;28;20032;-73
2021/05/20 04:55:02;;;;;;;5.20;2.58;;;19.20;49.50;;;;;;5094117;28;20046;-72
2021/05/20 04:57:28;;;;;;;4.85;2.33;;;19.20;49.50;;;;;;5094113;28;20034;-72
2021/05/20 04:59:53;;;;;;;4.78;2.28;;;19.20;49.50;;;;;;5093717;28;20099;-72
2021/05/20 05:02:19;;;;;;;5.13;2.47;;;19.20;49.50;;;;;;5093470;28;20495;-72
2021/05/20 05:04:45;;;;;;;5.25;2.50;;;19.20;49.50;;;;;;5093728;28;20028;-72
2021/05/20 05:07:10;;;;;;;4.82;2.20;;;19.20;49.50;;;;;;5093502;28;20032;-72
2021/05/20 05:09:36;;;;;;;5.80;2.40;;;19.30;49.50;;;;;;5093761;28;20075;-72
2021/05/20 05:12:01;;;;;;;4.60;2.35;;;19.20;49.50;;;;;;5093269;28;20028;-72
2021/05/20 05:14:27;;;;;;;4.40;2.30;;;19.20;49.50;;;;;;5093239;28;20020;-72
2021/05/20 05:16:54;;;;;;;4.85;2.47;;;19.20;49.50;;;;;;5093197;28;20503;-72
2021/05/20 05:19:19;;;;;;;4.38;2.50;;;19.20;49.50;;;;;;5092043;28;20434;-72
2021/05/20 05:21:45;;;;;;;3.97;2.17;;;19.20;49.50;;;;;;5095616;28;20059;-73
2021/05/20 05:24:11;;;;;;;5.10;2.35;;;19.20;49.50;;;;;;5091887;28;20380;-72
2021/05/20 05:26:36;;;;;;;4.55;2.10;;;19.20;49.40;;;;;;5093119;28;20171;-72
2021/05/20 05:29:02;;;;;;;4.72;2.20;;;19.30;49.50;;;;;;5092829;28;20036;-72
2021/05/20 05:31:28;;;;;;;5.20;2.42;;;19.20;49.50;;;;;;5092902;28;20086;-72
2021/05/20 05:33:54;;;;;;;4.75;2.15;;;19.20;49.40;;;;;;5092509;28;20111;-72
2021/05/20 05:36:20;;;;;;;4.50;2.30;;;19.20;49.50;;;;;;5093009;28;20020;-73
2021/05/20 05:38:46;;;;;;;5.53;2.40;;;19.20;49.40;;;;;;5093137;28;20081;-73
2021/05/20 05:41:12;;;;;;;4.70;2.15;;;19.20;49.50;;;;;;5092882;28;20020;-73
2021/05/20 05:43:38;;;;;;;5.07;2.53;;;19.20;49.50;;;;;;5092981;28;20092;-73
2021/05/20 05:46:03;;;;;;;5.32;2.42;;;19.20;49.50;;;;;;5092778;28;20028;-73
2021/05/20 05:48:29;;;;;;;4.95;2.58;;;19.20;49.50;;;;;;5093169;28;20035;-74
2021/05/20 05:50:57;;;;;;;5.75;2.38;;;19.20;49.50;;;;;;5093010;28;20582;-73
2021/05/20 05:53:22;;;;;;;5.38;2.72;;;19.20;49.50;;;;;;5094315;28;20024;-73
2021/05/20 05:55:48;;;;;;;6.18;2.90;;;19.20;49.50;;;;;;5093732;28;20020;-73
2021/05/20 05:58:13;;;;;;;5.53;2.72;;;19.20;49.50;;;;;;5093067;28;20458;-73
2021/05/20 06:00:39;;;;;;;6.03;3.00;;;19.20;49.50;;;;;;5092944;28;20016;-74
2021/05/20 06:03:06;;;;;;;6.32;3.13;;;19.20;49.50;;;;;;5093623;28;20028;-73
2021/05/20 06:05:31;;;;;;;6.07;3.00;;;19.20;49.50;;;;;;5093311;28;20028;-72
2021/05/20 06:07:57;;;;;;;5.75;2.63;;;19.20;49.50;;;;;;5093368;28;20036;-72
2021/05/20 06:10:23;;;;;;;5.85;2.95;;;19.20;49.60;;;;;;5093289;28;20020;-72
2021/05/20 06:12:49;;;;;;;6.80;3.05;;;19.20;49.50;;;;;;5093094;28;20020;-72
2021/05/20 06:15:15;;;;;;;5.95;2.92;;;19.20;49.60;;;;;;5096394;28;20361;-72
2021/05/20 06:17:40;;;;;;;6.38;2.95;;;19.20;49.60;;;;;;5096321;28;20107;-72
2021/05/20 06:20:07;;;;;;;5.82;3.00;;;19.20;49.50;;;;;;5096625;28;20115;-72
2021/05/20 06:22:33;;;;;;;6.28;3.03;;;19.20;49.60;;;;;;5096645;28;20024;-72
2021/05/20 06:24:59;;;;;;;6.47;3.13;;;19.20;49.60;;;;;;5096330;28;20051;-72
2021/05/20 06:27:26;;;;;;;6.28;3.25;;;19.30;49.50;;;;;;5096191;28;20042;-72
2021/05/20 06:29:56;;;;;;;7.55;3.30;;;19.20;49.50;;;;;;5096382;28;20024;-73
2021/05/20 06:32:23;;;;;;;8.05;4.00;;;19.20;49.50;;;;;;5095969;28;20032;-72
2021/05/20 06:34:48;;;;;;;7.60;3.90;;;19.20;49.50;;;;;;5096481;28;20024;-72
2021/05/20 06:37:14;;;;;;;7.57;3.80;;;19.20;49.60;;;;;;5095719;28;20020;-72
2021/05/20 06:39:40;;;;;;;11.25;3.65;;;19.20;49.50;;;;;;5096206;28;20107;-72
2021/05/20 06:42:10;;;;;;;7.32;3.80;;;19.20;49.50;;;;;;5096193;28;20517;-72
2021/05/20 06:44:37;;;;;;;6.93;3.38;;;19.20;49.60;;;;;;5096183;28;20032;-72
2021/05/20 06:47:03;;;;;;;7.90;3.88;;;19.20;49.60;;;;;;5094508;28;20032;-72
2021/05/20 06:49:29;;;;;;;8.27;4.10;;;19.30;49.60;;;;;;5095876;28;20378;-72
2021/05/20 06:51:55;;;;;;;10.27;4.60;;;19.20;49.60;;;;;;5096098;28;20024;-72
2021/05/20 06:54:20;;;;;;;7.05;3.65;;;19.20;49.60;;;;;;5096047;28;20091;-72
2021/05/20 06:56:50;;;;;;;7.68;4.03;;;19.30;49.60;;;;;;5095660;28;20516;-72
2021/05/20 07:02:00;;;;;;;9.18;4.55;;;19.30;49.50;;;;;;5095961;28;20086;-73
2021/05/20 07:04:25;;;;;;;8.32;4.45;;;19.30;49.50;;;;;;5095512;28;20037;-72
2021/05/20 07:06:51;;;;;;;8.20;4.53;;;19.30;49.50;;;;;;5095693;28;20097;-72
2021/05/20 07:09:16;;;;;;;8.13;4.53;;;19.30;49.60;;;;;;5095582;28;20529;-72
2021/05/20 07:11:42;;;;;;;7.57;4.22;;;19.30;49.50;;;;;;5095430;28;20020;-70
2021/05/20 07:14:08;;;;;;;9.18;4.13;;;19.30;49.50;;;;;;5095510;28;20023;-72
2021/05/20 07:16:33;;;;;;;9.20;4.30;;;19.30;49.50;;;;;;5095118;28;20074;-73
2021/05/20 07:18:59;;;;;;;8.52;4.65;;;19.30;49.50;;;;;;5095169;28;20379;-72
2021/05/20 07:21:25;;;;;;;7.97;4.25;;;19.30;49.50;;;;;;5095251;28;20127;-72
2021/05/20 07:23:50;;;;;;;8.05;4.60;;;19.30;49.50;;;;;;5095338;28;20022;-72
2021/05/20 07:26:16;;;;;;;9.77;5.55;;;19.30;49.60;;;;;;5093929;28;20515;-72
2021/05/20 07:28:42;;;;;;;8.63;4.40;;;19.30;49.60;;;;;;5095161;28;20059;-73
2021/05/20 07:31:07;;;;;;;8.70;4.50;;;19.30;49.60;;;;;;5095296;28;20079;-73
2021/05/20 07:33:34;;;;;;;9.95;4.78;;;19.30;49.60;;;;;;5095005;28;20027;-72
2021/05/20 07:35:59;;;;;;;9.98;5.10;;;19.30;49.60;;;;;;5095057;28;20506;-73
2021/05/20 07:38:25;;;;;;;9.63;4.95;;;19.30;49.60;;;;;;5094711;28;20021;-73
2021/05/20 07:40:50;;;;;;;8.68;5.15;;;19.30;49.60;;;;;;5095338;28;20032;-72
2021/05/20 07:43:16;;;;;;;8.90;4.78;;;19.30;49.60;;;;;;5095077;28;20020;-72
2021/05/20 07:45:42;;;;;;;8.82;5.10;;;19.30;49.60;;;;;;5094851;28;20036;-72
2021/05/20 07:48:07;;;;;;;9.02;5.22;;;19.30;49.60;;;;;;5094454;28;20051;-72
2021/05/20 07:50:33;;;;;;;9.20;5.45;;;19.30;49.60;;;;;;5093371;28;20419;-73
2021/05/20 07:52:58;;;;;;;9.90;5.03;;;19.30;49.60;;;;;;5094808;28;20035;-73
2021/05/20 07:55:24;;;;;;;11.48;5.43;;;19.30;49.60;;;;;;5094408;28;20028;-73
2021/05/20 07:57:53;;;;;;;10.60;5.40;;;19.30;49.60;;;;;;5094797;28;20017;-72
2021/05/20 08:00:19;;;;;;;10.65;5.03;;;19.30;49.60;;;;;;5094541;28;20051;-73
2021/05/20 08:03:02;;;;;;;10.57;5.50;;;19.30;49.60;;;;;;5094387;28;20028;-73
2021/05/20 08:05:34;;;;;;;9.43;5.07;;;19.20;49.60;;;;;;5094647;28;20502;-72
2021/05/20 08:10:49;;;;;;;10.77;5.70;;;19.30;49.70;;;;;;5094574;28;20062;-72
2021/05/20 08:13:15;;;;;;;9.95;5.38;;;19.30;49.70;;;;;;5094456;28;20476;-73
2021/05/20 08:15:41;;;;;;;10.40;5.60;;;19.30;49.70;;;;;;5094250;28;20024;-72
2021/05/20 08:18:06;;;;;;;9.45;5.25;;;19.30;49.60;;;;;;5094081;28;20063;-73
2021/05/20 08:20:32;;;;;;;11.50;5.82;;;19.20;49.70;;;;;;5094356;28;20024;-72
2021/05/20 08:22:57;;;;;;;11.68;5.55;;;19.30;49.70;;;;;;5094116;28;20090;-73
2021/05/20 08:25:24;;;;;;;11.73;5.90;;;19.30;49.70;;;;;;5092430;28;20126;-73
2021/05/20 08:27:49;;;;;;;12.00;6.40;;;19.30;49.70;;;;;;5092438;28;20462;-72
2021/05/20 08:30:17;;;;;;;10.13;5.78;;;19.30;49.70;;;;;;5094361;28;20051;-72
2021/05/20 08:32:44;;;;;;;9.23;5.68;;;19.30;49.70;;;;;;5093973;28;20029;-72
2021/05/20 08:35:10;;;;;;;9.63;5.57;;;19.30;49.70;;;;;;5094386;28;20072;-72
2021/05/20 08:37:38;;;;;;;11.32;5.93;;;19.30;49.70;;;;;;5094832;28;20107;-72
2021/05/20 08:40:05;;;;;;;9.93;5.82;;;19.30;49.70;;;;;;5095174;28;20020;-73
2021/05/20 08:42:32;;;;;;;10.80;5.85;;;19.30;49.70;;;;;;5098090;28;20027;-73
2021/05/20 08:45:05;;;;;;;10.75;5.75;;;19.30;49.70;;;;;;5115373;28;20028;-71
2021/05/20 08:47:31;;;;;;;9.73;5.22;;;19.20;49.70;;;;;;5116681;28;20054;-72
2021/05/20 08:49:57;;;;;;;10.10;5.65;;;19.20;49.80;;;;;;5116780;28;20016;-73
2021/05/20 08:52:22;;;;;;;10.35;5.50;;;19.30;49.70;;;;;;5116080;28;20096;-74
2021/05/20 08:54:48;;;;;;;9.77;6.05;;;19.20;49.70;;;;;;5104069;28;20028;-74
2021/05/20 08:57:13;;;;;;;12.35;5.53;;;19.30;49.70;;;;;;5102136;28;20039;-73
2021/05/20 08:59:39;;;;;;;12.25;6.13;;;19.30;49.70;;;;;;5102518;28;20055;-73
2021/05/20 09:02:05;;;;;;;10.90;5.80;;;19.30;49.80;;;;;;5096445;28;20030;-73
2021/05/20 09:04:30;;;;;;;10.73;6.07;;;19.30;49.70;;;;;;5093888;28;20490;-74
2021/05/20 09:07:00;;;;;;;10.70;6.50;;;19.30;49.70;;;;;;5093628;28;20044;-73
2021/05/20 09:09:34;;;;;;;10.23;5.60;;;19.30;49.70;;;;;;5093602;28;20016;-73
2021/05/20 09:12:00;;;;;;;10.35;6.20;;;19.30;49.70;;;;;;5093690;28;20379;-73
2021/05/20 09:14:32;;;;;;;13.18;6.15;;;19.30;49.70;;;;;;5093537;28;20028;-72
2021/05/20 09:17:18;;;;;;;11.18;5.72;;;19.30;49.70;;;;;;5093426;28;20016;-73
2021/05/20 09:19:51;;;;;;;10.23;5.63;;;19.30;49.80;;;;;;5093535;28;20479;-73
2021/05/20 09:22:16;;;;;;;10.05;5.63;;;19.30;49.70;;;;;;5093515;28;20024;-73
2021/05/20 09:24:43;;;;;;;9.77;5.68;;;19.30;49.80;;;;;;5093283;28;20403;-72
2021/05/20 09:27:31;;;;;;;12.07;6.38;;;19.30;49.70;;;;;;5093455;28;20024;-72
2021/05/20 09:30:20;;;;;;;10.60;6.22;;;19.30;49.70;;;;;;5093391;28;20040;-73
2021/05/20 09:32:53;;;;;;;12.18;6.13;;;19.30;49.70;;;;;;5092918;28;20078;-72
2021/05/20 09:35:24;;;;;;;10.65;6.25;;;19.30;49.70;;;;;;5093095;28;20032;-73
2021/05/20 09:38:12;;;;;;;10.82;6.25;;;19.30;49.70;;;;;;5093178;28;20028;-72
2021/05/20 09:40:39;;;;;;;10.95;6.35;;;19.30;49.80;;;;;;5092589;28;20107;-73
2021/05/20 09:43:14;;;;;;;11.45;6.40;;;19.30;49.80;;;;;;5092508;28;20082;-73
2021/05/20 09:45:40;;;;;;;11.90;6.80;;;19.30;49.80;;;;;;5092564;28;20123;-73
2021/05/20 09:48:08;;;;;;;11.13;6.05;;;19.30;49.80;;;;;;5092518;28;20116;-73
2021/05/20 09:50:45;;;;;;;10.90;6.63;;;19.30;49.80;;;;;;5096477;28;20448;-73
2021/05/20 09:53:13;;;;;;;11.27;6.30;;;19.30;49.70;;;;;;5095152;28;20035;-75
2021/05/20 09:55:59;;;;;;;10.82;6.38;;;19.30;49.70;;;;;;5096514;28;20116;-73
2021/05/20 09:58:32;;;;;;;11.25;6.18;;;19.30;49.70;;;;;;5094902;28;20475;-72
2021/05/20 10:00:59;;;;;;;11.23;6.05;;;19.40;49.70;;;;;;5096121;28;20508;-73
2021/05/20 10:03:26;;;;;;;11.75;6.45;;;19.40;49.70;;;;;;5096448;28;20032;-73
2021/05/20 10:05:57;;;;;;;11.65;6.53;;;19.30;49.70;;;;;;5096479;28;20031;-73
2021/05/20 10:08:24;;;;;;;9.93;5.55;;;19.30;49.70;;;;;;5096212;28;20032;-72
2021/05/20 10:10:54;;;;;;;10.77;5.68;;;19.50;49.60;;;;;;5096314;28;20032;-73
2021/05/20 10:13:22;;;;;;;11.75;6.95;;;19.40;49.60;;;;;;5096212;28;20028;-73
2021/05/20 10:15:49;;;;;;;12.60;6.82;;;19.40;49.60;;;;;;5095910;28;20046;-73
2021/05/20 10:18:19;;;;;;;8.80;5.68;;;19.40;49.60;;;;;;5094538;28;20016;-73
2021/05/20 10:20:54;;;;;;;12.30;6.40;;;19.50;49.60;;;;;;5095914;28;20045;-73
2021/05/20 10:23:20;;;;;;;;;;;19.50;49.60;;;;;;5096542;28;20099;-73
2021/05/20 10:25:49;;;;;;;11.60;6.32;;;19.50;49.60;;;;;;5095793;28;19920;-73
2021/05/20 10:28:16;;;;;;;10.40;5.63;;;19.50;49.60;;;;;;5095770;28;20036;-74
2021/05/20 10:30:44;;;;;;;11.75;6.57;;;19.40;49.60;;;;;;5096348;28;20023;-73
2021/05/20 10:33:10;;;;;;;11.50;6.07;;;19.50;49.60;;;;;;5096644;28;20020;-74
2021/05/20 10:35:43;;;;;;;10.95;6.28;;;19.50;49.60;;;;;;5094951;28;20024;-74
2021/05/20 10:38:10;;;;;;;11.43;6.18;;;19.50;49.60;;;;;;5096103;28;20047;-72
2021/05/20 10:40:36;;;;;;;11.73;6.20;;;19.50;49.50;;;;;;5094869;28;20059;-72
2021/05/20 10:43:06;;;;;;;10.00;5.88;;;19.50;49.50;;;;;;5095872;28;20086;-73
2021/05/20 10:45:33;;;;;;;10.25;6.15;;;19.50;49.50;;;;;;5095669;28;20433;-73
2021/05/20 10:48:04;;;;;;;10.35;6.20;;;19.50;49.60;;;;;;5095877;28;20475;-73
2021/05/20 10:50:51;;;;;;;10.38;6.10;;;19.50;49.60;;;;;;5095983;28;20052;-71
2021/05/20 10:54:09;;;;;;;9.80;5.50;;;19.50;49.50;;;;;;5095620;28;20024;-73
2021/05/20 10:56:37;;;;;;;9.45;5.45;;;19.60;49.40;;;;;;5061881;28;20484;-73
2021/05/20 10:59:30;;;;;;;11.55;6.35;;;19.60;49.40;;;;;;5095763;28;20260;-73
2021/05/20 11:01:55;;;;;;;10.00;5.18;;;19.60;49.30;;;;;;5095514;28;20035;-73
2021/05/20 11:04:42;;;;;;;10.93;6.05;;;19.60;49.40;;;;;;5094269;28;20458;-73
2021/05/20 11:07:08;;;;;;;10.55;6.10;;;19.60;49.40;;;;;;5095466;28;20024;-72
2021/05/20 11:09:48;;;;;;;10.70;5.55;;;19.70;49.30;;;;;;5095419;28;20027;-73
2021/05/20 11:12:15;;;;;;;9.68;5.68;;;19.60;49.40;;;;;;5095772;28;20020;-73
2021/05/20 11:14:41;;;;;;;9.95;5.75;;;19.60;49.40;;;;;;5095759;28;20532;-73
2021/05/20 11:17:30;;;;;;;10.30;5.95;;;19.60;49.40;;;;;;5095313;28;20039;-73
2021/05/20 11:20:25;;;;;;;9.38;5.50;;;19.60;49.30;;;;;;5095748;28;20070;-73
2021/05/20 11:23:18;;;;;;;;;;;19.70;49.30;;;;;;5096091;28;20054;-73
2021/05/20 11:25:45;;;;;;;9.40;5.95;;;19.60;49.30;;;;;;5095319;28;19920;-73
2021/05/20 11:28:11;;;;;;;10.07;5.80;;;19.70;49.30;;;;;;5095319;28;20093;-73
2021/05/20 11:30:37;;;;;;;9.45;5.43;;;19.80;49.10;;;;;;5095723;28;20020;-73
2021/05/20 11:33:03;;;;;;;9.77;5.43;;;19.80;49.10;;;;;;5095063;28;20028;-74
2021/05/20 11:35:54;;;;;;;10.20;5.30;;;19.80;49.00;;;;;;5095192;28;20137;-73
2021/05/20 11:38:24;;;;;;;9.35;5.35;;;19.90;49.00;;;;;;5095422;28;20031;-73
2021/05/20 11:40:50;;;;;;;8.63;5.10;;;19.90;48.90;;;;;;5094996;28;20028;-72
2021/05/20 11:43:26;;;;;;;10.23;6.13;;;19.90;48.80;;;;;;5094805;28;20115;-74
2021/05/20 11:45:51;;;;;;;9.60;5.38;;;20.00;48.70;;;;;;5095335;28;20020;-74
2021/05/20 11:48:17;;;;;;;9.20;5.45;;;20.00;48.70;;;;;;5094569;28;20043;-72
2021/05/20 11:50:53;;;;;;;9.00;5.18;;;20.00;48.70;;;;;;5093308;28;20028;-74
2021/05/20 11:53:19;;;;;;;9.07;5.13;;;20.00;48.70;;;;;;5094501;28;20039;-74
2021/05/20 11:55:46;;;;;;;9.70;5.18;;;20.10;48.60;;;;;;5093202;28;20020;-74
2021/05/20 11:58:12;;;;;;;9.27;4.85;;;20.20;48.40;;;;;;5094731;28;20099;-73
2021/05/20 12:00:38;;;;;;;9.43;4.78;;;20.20;48.50;;;;;;5094996;28;20036;-73
2021/05/20 12:03:04;;;;;;;11.30;5.28;;;20.20;48.40;;;;;;5094916;28;20043;-72
2021/05/20 12:05:30;;;;;;;8.50;4.60;;;20.20;48.30;;;;;;5095114;28;20024;-73
2021/05/20 12:07:55;;;;;;;7.97;4.53;;;20.20;48.30;;;;;;5094668;28;20028;-73
2021/05/20 12:10:23;;;;;;;9.45;5.53;;;20.30;48.20;;;;;;5094763;28;20035;-73
2021/05/20 12:12:57;;;;;;;8.75;4.95;;;20.30;48.30;;;;;;5093679;28;20433;-73
2021/05/20 12:15:27;;;;;;;9.77;5.40;;;20.40;48.10;;;;;;5094264;28;20034;-73
2021/05/20 12:17:56;;;;;;;9.50;5.07;;;20.50;48.00;;;;;;5094452;28;20082;-72
2021/05/20 12:20:24;;;;;;;8.48;4.72;;;20.50;47.90;;;;;;5094500;28;20031;-73
2021/05/20 12:22:51;;;;;;;8.80;5.00;;;20.50;47.80;;;;;;5094222;28;20028;-73
2021/05/20 12:25:18;;;;;;;8.55;4.35;;;20.50;47.80;;;;;;5094194;28;20047;-73
2021/05/20 12:27:46;;;;;;;8.30;4.63;;;20.50;47.90;;;;;;5094022;28;20039;-73
2021/05/20 12:30:20;;;;;;;8.88;4.65;;;20.60;47.60;;;;;;5093969;28;20024;-72
2021/05/20 12:32:48;;;;;;;8.55;4.68;;;20.70;47.50;;;;;;5094306;28;20043;-73
2021/05/20 12:35:20;;;;;;;8.27;4.63;;;20.60;47.80;;;;;;5094005;28;20077;-72
2021/05/20 12:37:52;;;;;;;10.05;4.35;;;20.50;47.80;;;;;;5095222;28;20036;-73
2021/05/20 12:40:34;;;;;;;8.52;4.60;;;20.70;47.40;;;;;;5099440;28;20035;-72
2021/05/20 12:43:18;;;;;;;9.02;4.63;;;20.70;47.60;;;;;;5105193;28;20027;-72
2021/05/20 12:45:56;;;;;;;8.93;4.78;;;20.80;47.40;;;;;;5101195;28;20032;-72
2021/05/20 12:48:24;;;;;;;8.02;4.63;;;20.90;47.30;;;;;;5094712;28;20051;-73
2021/05/20 12:50:50;;;;;;;7.03;4.30;;;21.00;47.20;;;;;;5094514;28;20012;-72
2021/05/20 12:53:31;;;;;;;8.07;4.35;;;20.90;47.30;;;;;;5094209;28;20028;-73
2021/05/20 12:56:00;;;;;;;9.52;4.80;;;20.90;47.30;;;;;;5093615;28;20031;-72